^^
Meteo Knjazevac Station Historical Data
Daily Summary for August 22, 2021 Units:  Both    English   Metric
Daily Weekly Monthly Yearly Custom
  High: Low: Average:
Temperature: 72.3 °F /  22.4 °C 45.6 °F /  7.6 °C 59.4 °F /  15.2 °C
Dew Point: 57.2 °F /  14 °C 44 °F /  6.7 °C 51.9 °F /  11.1 °C
Humidity: 98% 57% 78%
Wind Speed: 9mph /  14.5km/h - 2.6mph /  4.2km/h
Wind Gust: 15mph /  24.1km/h - -
Wind- - South
Pressure: 30.17 in /  1021.6 hPa 30.09 in /  1018.8 hPa -
Precipitation: 0.00 in /  0 mm    
Historical Graphs
 
 
Tabular Data for August 22, 2021
Time Temperature Dew Point Pressure Wind Wind Speed Wind Gust Humidity Rainfall Rate (Hourly) solar Conditions
00:00 53.4 °F /  11.9 °C 48.7 °F /  9.3 °C 30.10in /  1019.2hPa Calm   6mph /  9.7km/h 84% 0.00in /  0mm 0 W/m2
00:10 53.2 °F /  11.8 °C 48.5 °F /  9.2 °C 30.10in /  1019.2hPa SE 2mph /  3.2km/h 5mph /  8km/h 84% 0.00in /  0mm 0 W/m2
00:20 53.1 °F /  11.7 °C 48.4 °F /  9.1 °C 30.10in /  1019.2hPa East 1mph /  1.6km/h 6mph /  9.7km/h 84% 0.00in /  0mm 0 W/m2
00:30 52.9 °F /  11.6 °C 48.2 °F /  9 °C 30.10in /  1019.2hPa ESE 2mph /  3.2km/h 5mph /  8km/h 84% 0.00in /  0mm 0 W/m2
00:40 52.8 °F /  11.6 °C 48.1 °F /  8.9 °C 30.10in /  1019.2hPa Calm   5mph /  8km/h 84% 0.00in /  0mm 0 W/m2
00:50 52.4 °F /  11.3 °C 48.1 °F /  8.9 °C 30.10in /  1019.2hPa ESE 1mph /  1.6km/h 6mph /  9.7km/h 85% 0.00in /  0mm 0 W/m2
01:00 52.3 °F /  11.3 °C 48 °F /  8.9 °C 30.10in /  1019.2hPa ENE 1mph /  1.6km/h 5mph /  8km/h 85% 0.00in /  0mm 0 W/m2
01:10 52.3 °F /  11.3 °C 48 °F /  8.9 °C 30.10in /  1019.2hPa SE 3mph /  4.8km/h 6mph /  9.7km/h 85% 0.00in /  0mm 0 W/m2
01:20 52.3 °F /  11.3 °C 48 °F /  8.9 °C 30.10in /  1019.2hPa ENE 3mph /  4.8km/h 6mph /  9.7km/h 85% 0.00in /  0mm 0 W/m2
01:30 52.2 °F /  11.2 °C 47.8 °F /  8.8 °C 30.10in /  1019.2hPa NNE 3mph /  4.8km/h 6mph /  9.7km/h 85% 0.00in /  0mm 0 W/m2
01:50 52 °F /  11.1 °C 47.9 °F /  8.8 °C 30.10in /  1019.2hPa NE 5mph /  8km/h 10mph /  16.1km/h 86% 0.00in /  0mm 0 W/m2
02:00 51.8 °F /  11 °C 47.7 °F /  8.7 °C 30.10in /  1019.2hPa East 5mph /  8km/h 10mph /  16.1km/h 86% 0.00in /  0mm 0 W/m2
02:10 51.6 °F /  10.9 °C 47.6 °F /  8.7 °C 30.11in /  1019.5hPa ENE 5mph /  8km/h 8mph /  12.9km/h 86% 0.00in /  0mm 0 W/m2
02:20 51.6 °F /  10.9 °C 47.6 °F /  8.7 °C 30.11in /  1019.5hPa East 5mph /  8km/h 9mph /  14.5km/h 86% 0.00in /  0mm 0 W/m2
02:30 51.7 °F /  10.9 °C 47.7 °F /  8.7 °C 30.11in /  1019.5hPa ESE 3mph /  4.8km/h 7mph /  11.3km/h 86% 0.00in /  0mm 0 W/m2
02:40 51.4 °F /  10.8 °C 47.4 °F /  8.6 °C 30.10in /  1019.2hPa NE 3mph /  4.8km/h 7mph /  11.3km/h 86% 0.00in /  0mm 0 W/m2
02:50 51.2 °F /  10.7 °C 47.7 °F /  8.7 °C 30.11in /  1019.5hPa NNE 1mph /  1.6km/h 5mph /  8km/h 88% 0.00in /  0mm 0 W/m2
03:00 50.9 °F /  10.5 °C 47.5 °F /  8.6 °C 30.11in /  1019.5hPa NE 3mph /  4.8km/h 6mph /  9.7km/h 88% 0.00in /  0mm 0 W/m2
03:10 51.1 °F /  10.6 °C 47.6 °F /  8.7 °C 30.10in /  1019.2hPa NE 2mph /  3.2km/h 7mph /  11.3km/h 88% 0.00in /  0mm 0 W/m2
03:20 50.9 °F /  10.5 °C 47.5 °F /  8.6 °C 30.11in /  1019.5hPa NE 2mph /  3.2km/h 5mph /  8km/h 88% 0.00in /  0mm 0 W/m2
03:30 50.7 °F /  10.4 °C 47.6 °F /  8.7 °C 30.11in /  1019.5hPa ESE 1mph /  1.6km/h 5mph /  8km/h 89% 0.00in /  0mm 0 W/m2
03:40 50.3 °F /  10.2 °C 47.2 °F /  8.4 °C 30.10in /  1019.2hPa ESE 3mph /  4.8km/h 7mph /  11.3km/h 89% 0.00in /  0mm 0 W/m2
03:50 50.2 °F /  10.1 °C 47.1 °F /  8.4 °C 30.10in /  1019.2hPa SE 1mph /  1.6km/h 6mph /  9.7km/h 89% 0.00in /  0mm 0 W/m2
04:00 49.8 °F /  9.9 °C 46.7 °F /  8.2 °C 30.10in /  1019.2hPa SW 1mph /  1.6km/h 4mph /  6.4km/h 89% 0.00in /  0mm 0 W/m2
04:10 49.6 °F /  9.8 °C 46.8 °F /  8.2 °C 30.10in /  1019.2hPa ENE 1mph /  1.6km/h 3mph /  4.8km/h 90% 0.00in /  0mm 0 W/m2
04:20 49.6 °F /  9.8 °C 46.8 °F /  8.2 °C 30.10in /  1019.2hPa North 1mph /  1.6km/h 3mph /  4.8km/h 90% 0.00in /  0mm 0 W/m2
04:30 49.8 °F /  9.9 °C 47 °F /  8.3 °C 30.11in /  1019.5hPa ESE 2mph /  3.2km/h 5mph /  8km/h 90% 0.00in /  0mm 0 W/m2
04:40 50.2 °F /  10.1 °C 47.1 °F /  8.4 °C 30.11in /  1019.5hPa Calm   7mph /  11.3km/h 89% 0.00in /  0mm 0 W/m2
04:50 49.5 °F /  9.7 °C 46.4 °F /  8 °C 30.11in /  1019.5hPa NE 3mph /  4.8km/h 5mph /  8km/h 89% 0.00in /  0mm 0 W/m2
05:00 49.2 °F /  9.6 °C 46.1 °F /  7.8 °C 30.11in /  1019.5hPa NE 1mph /  1.6km/h 5mph /  8km/h 89% 0.00in /  0mm 0 W/m2
05:10 48.1 °F /  8.9 °C 45.3 °F /  7.4 °C 30.12in /  1019.9hPa WNW 2mph /  3.2km/h 3mph /  4.8km/h 90% 0.00in /  0mm 0 W/m2
05:20 47.8 °F /  8.8 °C 45.3 °F /  7.4 °C 30.12in /  1019.9hPa Calm   4mph /  6.4km/h 91% 0.00in /  0mm 0 W/m2
05:30 47.6 °F /  8.7 °C 45.1 °F /  7.3 °C 30.12in /  1019.9hPa Calm   2mph /  3.2km/h 91% 0.00in /  0mm 0 W/m2
05:40 47.7 °F /  8.7 °C 45.7 °F /  7.6 °C 30.12in /  1019.9hPa Calm   2mph /  3.2km/h 93% 0.00in /  0mm 0 W/m2
05:50 47.1 °F /  8.4 °C 45.2 °F /  7.3 °C 30.13in /  1020.2hPa NNW 1mph /  1.6km/h 4mph /  6.4km/h 93% 0.00in /  0mm 0 W/m2
06:00 47.1 °F /  8.4 °C 45.2 °F /  7.3 °C 30.13in /  1020.2hPa Calm   3mph /  4.8km/h 93% 0.00in /  0mm 0 W/m2
06:10 47.3 °F /  8.5 °C 45.9 °F /  7.7 °C 30.13in /  1020.2hPa NNE 2mph /  3.2km/h 3mph /  4.8km/h 95% 0.00in /  0mm 0 W/m2
06:20 47.5 °F /  8.6 °C 45.8 °F /  7.7 °C 30.13in /  1020.2hPa NE 1mph /  1.6km/h 5mph /  8km/h 94% 0.00in /  0mm 0 W/m2
06:30 46.9 °F /  8.3 °C 45 °F /  7.2 °C 30.13in /  1020.2hPa NW 1mph /  1.6km/h 4mph /  6.4km/h 93% 0.00in /  0mm 0 W/m2
06:40 46.9 °F /  8.3 °C 45.6 °F /  7.6 °C 30.13in /  1020.2hPa Calm   3mph /  4.8km/h 95% 0.00in /  0mm 0 W/m2
06:50 46.9 °F /  8.3 °C 45.6 °F /  7.6 °C 30.13in /  1020.2hPa Calm   3mph /  4.8km/h 95% 0.00in /  0mm 0 W/m2
07:00 46.5 °F /  8.1 °C 44.6 °F /  7 °C 30.13in /  1020.2hPa Calm   3mph /  4.8km/h 93% 0.00in /  0mm 3 W/m2
07:10 46 °F /  7.8 °C 44.1 °F /  6.7 °C 30.13in /  1020.2hPa Calm   2mph /  3.2km/h 93% 0.00in /  0mm 16 W/m2
07:20 45.6 °F /  7.6 °C 44 °F /  6.7 °C 30.14in /  1020.5hPa WNW 1mph /  1.6km/h 4mph /  6.4km/h 94% 0.00in /  0mm 27 W/m2
07:30 45.7 °F /  7.6 °C 44.3 °F /  6.8 °C 30.14in /  1020.5hPa WNW 1mph /  1.6km/h 4mph /  6.4km/h 95% 0.00in /  0mm 47 W/m2
07:40 46 °F /  7.8 °C 45 °F /  7.2 °C 30.14in /  1020.5hPa Calm   3mph /  4.8km/h 96% 0.00in /  0mm 61 W/m2
07:50 45.9 °F /  7.7 °C 44.9 °F /  7.2 °C 30.14in /  1020.5hPa Calm   2mph /  3.2km/h 96% 0.00in /  0mm 50 W/m2
08:00 46 °F /  7.8 °C 45 °F /  7.2 °C 30.14in /  1020.5hPa Calm   2mph /  3.2km/h 96% 0.00in /  0mm 60 W/m2
08:10 46.2 °F /  7.9 °C 45.1 °F /  7.3 °C 30.15in /  1020.9hPa North 2mph /  3.2km/h 3mph /  4.8km/h 96% 0.00in /  0mm 62 W/m2
08:20 46.8 °F /  8.2 °C 46.2 °F /  7.9 °C 30.15in /  1020.9hPa Calm   3mph /  4.8km/h 98% 0.00in /  0mm 115 W/m2
08:30 47.1 °F /  8.4 °C 46.6 °F /  8.1 °C 30.15in /  1020.9hPa WNW 1mph /  1.6km/h 2mph /  3.2km/h 98% 0.00in /  0mm 146 W/m2
08:40 48.1 °F /  8.9 °C 47.6 °F /  8.7 °C 30.16in /  1021.2hPa Calm   3mph /  4.8km/h 98% 0.00in /  0mm 197 W/m2
08:50 49.7 °F /  9.8 °C 49.2 °F /  9.6 °C 30.16in /  1021.2hPa Calm   1mph /  1.6km/h 98% 0.00in /  0mm 215 W/m2
09:00 51.2 °F /  10.7 °C 50.1 °F /  10.1 °C 30.16in /  1021.2hPa Calm   2mph /  3.2km/h 96% 0.00in /  0mm 173 W/m2
09:10 52.1 °F /  11.2 °C 50.7 °F /  10.4 °C 30.17in /  1021.6hPa SW 1mph /  1.6km/h 1mph /  1.6km/h 95% 0.00in /  0mm 272 W/m2
09:20 53 °F /  11.7 °C 51.3 °F /  10.7 °C 30.16in /  1021.2hPa WNW 1mph /  1.6km/h 1mph /  1.6km/h 94% 0.00in /  0mm 258 W/m2
09:30 54.2 °F /  12.3 °C 52.3 °F /  11.3 °C 30.16in /  1021.2hPa Calm   1mph /  1.6km/h 93% 0.00in /  0mm 328 W/m2
09:40 55.3 °F /  12.9 °C 52.7 °F /  11.5 °C 30.16in /  1021.2hPa Calm   2mph /  3.2km/h 91% 0.00in /  0mm 251 W/m2
09:50 56.9 °F /  13.8 °C 53.9 °F /  12.2 °C 30.16in /  1021.2hPa West 1mph /  1.6km/h 1mph /  1.6km/h 90% 0.00in /  0mm 279 W/m2
10:00 58.9 °F /  14.9 °C 54.1 °F /  12.3 °C 30.16in /  1021.2hPa SSW 1mph /  1.6km/h 2mph /  3.2km/h 84% 0.00in /  0mm 303 W/m2
10:10 60.2 °F /  15.7 °C 54.3 °F /  12.4 °C 30.16in /  1021.2hPa ENE 2mph /  3.2km/h 5mph /  8km/h 81% 0.00in /  0mm 258 W/m2
10:20 61.1 °F /  16.2 °C 54.9 °F /  12.7 °C 30.16in /  1021.2hPa NNE 2mph /  3.2km/h 5mph /  8km/h 80% 0.00in /  0mm 331 W/m2
10:30 62.3 °F /  16.8 °C 55.4 °F /  13 °C 30.15in /  1020.9hPa North 2mph /  3.2km/h 5mph /  8km/h 78% 0.00in /  0mm 467 W/m2
10:40 64 °F /  17.8 °C 55.5 °F /  13.1 °C 30.15in /  1020.9hPa SE 1mph /  1.6km/h 7mph /  11.3km/h 74% 0.00in /  0mm 455 W/m2
10:50 65.2 °F /  18.4 °C 56 °F /  13.3 °C 30.15in /  1020.9hPa SE 5mph /  8km/h 7mph /  11.3km/h 72% 0.00in /  0mm 496 W/m2
11:00 66.2 °F /  19 °C 55.7 °F /  13.2 °C 30.15in /  1020.9hPa ESE 2mph /  3.2km/h 7mph /  11.3km/h 69% 0.00in /  0mm 507 W/m2
11:10 66.8 °F /  19.3 °C 55.9 °F /  13.3 °C 30.15in /  1020.9hPa SSE 6mph /  9.7km/h 8mph /  12.9km/h 68% 0.00in /  0mm 518 W/m2
11:20 67.6 °F /  19.8 °C 56.3 °F /  13.5 °C 30.14in /  1020.5hPa SSE 2mph /  3.2km/h 7mph /  11.3km/h 67% 0.00in /  0mm 527 W/m2
11:30 68.2 °F /  20.1 °C 56 °F /  13.3 °C 30.14in /  1020.5hPa SE 1mph /  1.6km/h 9mph /  14.5km/h 65% 0.00in /  0mm 359 W/m2
11:40 68.7 °F /  20.4 °C 56 °F /  13.3 °C 30.14in /  1020.5hPa ESE 5mph /  8km/h 7mph /  11.3km/h 64% 0.00in /  0mm 541 W/m2
11:50 69.4 °F /  20.8 °C 56.3 °F /  13.5 °C 30.14in /  1020.5hPa SW 7mph /  11.3km/h 12mph /  19.3km/h 63% 0.00in /  0mm 545 W/m2
12:00 69.8 °F /  21 °C 55.7 °F /  13.2 °C 30.14in /  1020.5hPa SW 7mph /  11.3km/h 13mph /  20.9km/h 61% 0.00in /  0mm 548 W/m2
12:10 70.3 °F /  21.3 °C 55.7 °F /  13.2 °C 30.13in /  1020.2hPa SW 6mph /  9.7km/h 12mph /  19.3km/h 60% 0.00in /  0mm 549 W/m2
12:20 70.5 °F /  21.4 °C 55.5 °F /  13.1 °C 30.13in /  1020.2hPa SW 8mph /  12.9km/h 15mph /  24.1km/h 59% 0.00in /  0mm 529 W/m2
12:30 70.5 °F /  21.4 °C 55.5 °F /  13.1 °C 30.13in /  1020.2hPa SW 6mph /  9.7km/h 12mph /  19.3km/h 59% 0.00in /  0mm 547 W/m2
12:40 71.2 °F /  21.8 °C 56.1 °F /  13.4 °C 30.12in /  1019.9hPa SW 6mph /  9.7km/h 15mph /  24.1km/h 59% 0.00in /  0mm 543 W/m2
12:50 71.6 °F /  22 °C 56 °F /  13.3 °C 30.12in /  1019.9hPa SW 7mph /  11.3km/h 13mph /  20.9km/h 58% 0.00in /  0mm 508 W/m2
13:00 71.8 °F /  22.1 °C 56.2 °F /  13.4 °C 30.12in /  1019.9hPa SW 6mph /  9.7km/h 11mph /  17.7km/h 58% 0.00in /  0mm 531 W/m2
13:10 72 °F /  22.2 °C 56.4 °F /  13.6 °C 30.12in /  1019.9hPa SW 7mph /  11.3km/h 12mph /  19.3km/h 58% 0.00in /  0mm 523 W/m2
13:20 72 °F /  22.2 °C 55.9 °F /  13.3 °C 30.11in /  1019.5hPa SW 7mph /  11.3km/h 13mph /  20.9km/h 57% 0.00in /  0mm 475 W/m2
13:30 72 °F /  22.2 °C 55.9 °F /  13.3 °C 30.11in /  1019.5hPa SW 7mph /  11.3km/h 12mph /  19.3km/h 57% 0.00in /  0mm 502 W/m2
13:40 72 °F /  22.2 °C 55.9 °F /  13.3 °C 30.11in /  1019.5hPa SW 9mph /  14.5km/h 12mph /  19.3km/h 57% 0.00in /  0mm 490 W/m2
13:50 72.1 °F /  22.3 °C 56.5 °F /  13.6 °C 30.11in /  1019.5hPa SW 7mph /  11.3km/h 13mph /  20.9km/h 58% 0.00in /  0mm 476 W/m2
14:00 72.3 °F /  22.4 °C 56.7 °F /  13.7 °C 30.11in /  1019.5hPa SW 7mph /  11.3km/h 13mph /  20.9km/h 58% 0.00in /  0mm 460 W/m2
14:10 72 °F /  22.2 °C 56.4 °F /  13.6 °C 30.10in /  1019.2hPa SW 7mph /  11.3km/h 13mph /  20.9km/h 58% 0.00in /  0mm 414 W/m2
14:20 71.7 °F /  22.1 °C 56.1 °F /  13.4 °C 30.10in /  1019.2hPa SW 9mph /  14.5km/h 13mph /  20.9km/h 58% 0.00in /  0mm 425 W/m2
14:30 71.3 °F /  21.8 °C 56.2 °F /  13.4 °C 30.10in /  1019.2hPa SW 6mph /  9.7km/h 12mph /  19.3km/h 59% 0.00in /  0mm 401 W/m2
14:40 71.4 °F /  21.9 °C 55.9 °F /  13.3 °C 30.10in /  1019.2hPa SSW 6mph /  9.7km/h 12mph /  19.3km/h 58% 0.00in /  0mm 374 W/m2
14:50 71.3 °F /  21.8 °C 56.2 °F /  13.4 °C 30.10in /  1019.2hPa SSW 8mph /  12.9km/h 12mph /  19.3km/h 59% 0.00in /  0mm 201 W/m2
15:00 71.1 °F /  21.7 °C 56 °F /  13.3 °C 30.10in /  1019.2hPa SW 8mph /  12.9km/h 12mph /  19.3km/h 59% 0.00in /  0mm 268 W/m2
15:20 71.1 °F /  21.7 °C 56.5 °F /  13.6 °C 30.10in /  1019.2hPa SSW 6mph /  9.7km/h 10mph /  16.1km/h 60% 0.00in /  0mm 264 W/m2
15:30 70.9 °F /  21.6 °C 56.3 °F /  13.5 °C 30.10in /  1019.2hPa SSW 5mph /  8km/h 11mph /  17.7km/h 60% 0.00in /  0mm 244 W/m2
15:40 70.9 °F /  21.6 °C 56.4 °F /  13.6 °C 30.09in /  1018.8hPa SW 6mph /  9.7km/h 10mph /  16.1km/h 60% 0.00in /  0mm 193 W/m2
15:50 70.9 °F /  21.6 °C 56.3 °F /  13.5 °C 30.09in /  1018.8hPa SSW 6mph /  9.7km/h 9mph /  14.5km/h 60% 0.00in /  0mm 220 W/m2
16:00 70.9 °F /  21.6 °C 56.3 °F /  13.5 °C 30.09in /  1018.8hPa SSW 5mph /  8km/h 9mph /  14.5km/h 60% 0.00in /  0mm 184 W/m2
16:10 70.9 °F /  21.6 °C 57.2 °F /  14 °C 30.09in /  1018.8hPa SSW 6mph /  9.7km/h 10mph /  16.1km/h 62% 0.00in /  0mm 161 W/m2
16:20 70.7 °F /  21.5 °C 57 °F /  13.9 °C 30.09in /  1018.8hPa SW 3mph /  4.8km/h 10mph /  16.1km/h 62% 0.00in /  0mm 143 W/m2
16:30 70.7 °F /  21.5 °C 57 °F /  13.9 °C 30.09in /  1018.8hPa SW 8mph /  12.9km/h 12mph /  19.3km/h 62% 0.00in /  0mm 118 W/m2
16:40 70.6 °F /  21.4 °C 57 °F /  13.9 °C 30.09in /  1018.8hPa SW 6mph /  9.7km/h 10mph /  16.1km/h 62% 0.00in /  0mm 85 W/m2
16:50 70.3 °F /  21.3 °C 56.7 °F /  13.7 °C 30.09in /  1018.8hPa SW 5mph /  8km/h 8mph /  12.9km/h 62% 0.00in /  0mm 37 W/m2
17:00 69.8 °F /  21 °C 56.6 °F /  13.7 °C 30.09in /  1018.8hPa SW 3mph /  4.8km/h 7mph /  11.3km/h 63% 0.00in /  0mm 23 W/m2
17:10 69.4 °F /  20.8 °C 56.7 °F /  13.7 °C 30.09in /  1018.8hPa WSW 3mph /  4.8km/h 7mph /  11.3km/h 64% 0.00in /  0mm 11 W/m2
17:20 69.1 °F /  20.6 °C 56.8 °F /  13.8 °C 30.09in /  1018.8hPa Calm   5mph /  8km/h 65% 0.00in /  0mm 6 W/m2
17:30 68.4 °F /  20.2 °C 57 °F /  13.9 °C 30.09in /  1018.8hPa NNE 1mph /  1.6km/h 5mph /  8km/h 67% 0.00in /  0mm 2 W/m2
17:40 68 °F /  20 °C 55.8 °F /  13.2 °C 30.09in /  1018.8hPa ENE 1mph /  1.6km/h 5mph /  8km/h 65% 0.00in /  0mm 0 W/m2
17:50 67.5 °F /  19.7 °C 56.1 °F /  13.4 °C 30.10in /  1019.2hPa SW 1mph /  1.6km/h 5mph /  8km/h 67% 0.00in /  0mm 0 W/m2
18:00 66.9 °F /  19.4 °C 55.6 °F /  13.1 °C 30.10in /  1019.2hPa SW 1mph /  1.6km/h 6mph /  9.7km/h 67% 0.00in /  0mm 0 W/m2
18:10 66.7 °F /  19.3 °C 55.8 °F /  13.2 °C 30.10in /  1019.2hPa SSW 1mph /  1.6km/h 6mph /  9.7km/h 68% 0.00in /  0mm 0 W/m2
18:20 66.4 °F /  19.1 °C 55.5 °F /  13.1 °C 30.10in /  1019.2hPa SW 2mph /  3.2km/h 4mph /  6.4km/h 68% 0.00in /  0mm 0 W/m2
18:30 66 °F /  18.9 °C 55.6 °F /  13.1 °C 30.10in /  1019.2hPa SW 2mph /  3.2km/h 3mph /  4.8km/h 69% 0.00in /  0mm 0 W/m2
18:40 65.7 °F /  18.7 °C 55.2 °F /  12.9 °C 30.10in /  1019.2hPa SW 1mph /  1.6km/h 4mph /  6.4km/h 69% 0.00in /  0mm 0 W/m2
18:50 65.3 °F /  18.5 °C 54.9 °F /  12.7 °C 30.11in /  1019.5hPa SW 2mph /  3.2km/h 5mph /  8km/h 69% 0.00in /  0mm 0 W/m2
19:00 65.1 °F /  18.4 °C 54.7 °F /  12.6 °C 30.11in /  1019.5hPa SE 3mph /  4.8km/h 6mph /  9.7km/h 69% 0.00in /  0mm 0 W/m2
19:10 64.8 °F /  18.2 °C 54.7 °F /  12.6 °C 30.11in /  1019.5hPa South 2mph /  3.2km/h 4mph /  6.4km/h 70% 0.00in /  0mm 0 W/m2
19:20 64.1 °F /  17.8 °C 54.9 °F /  12.7 °C 30.11in /  1019.5hPa WSW 2mph /  3.2km/h 5mph /  8km/h 72% 0.00in /  0mm 0 W/m2
19:30 63.7 °F /  17.6 °C 54.9 °F /  12.7 °C 30.11in /  1019.5hPa NW 2mph /  3.2km/h 4mph /  6.4km/h 73% 0.00in /  0mm 0 W/m2
19:40 63.3 °F /  17.4 °C 54.5 °F /  12.5 °C 30.12in /  1019.9hPa East 2mph /  3.2km/h 5mph /  8km/h 73% 0.00in /  0mm 0 W/m2
19:50 63.1 °F /  17.3 °C 54.3 °F /  12.4 °C 30.11in /  1019.5hPa South 1mph /  1.6km/h 5mph /  8km/h 73% 0.00in /  0mm 0 W/m2
20:00 62.8 °F /  17.1 °C 54.4 °F /  12.4 °C 30.11in /  1019.5hPa SSE 2mph /  3.2km/h 5mph /  8km/h 74% 0.00in /  0mm 0 W/m2
20:10 62.6 °F /  17 °C 54.2 °F /  12.3 °C 30.12in /  1019.9hPa SSE 1mph /  1.6km/h 7mph /  11.3km/h 74% 0.00in /  0mm 0 W/m2
20:20 62.4 °F /  16.9 °C 54.4 °F /  12.4 °C 30.12in /  1019.9hPa WNW 1mph /  1.6km/h 3mph /  4.8km/h 75% 0.00in /  0mm 0 W/m2
20:30 62.1 °F /  16.7 °C 54.4 °F /  12.4 °C 30.12in /  1019.9hPa WNW 1mph /  1.6km/h 3mph /  4.8km/h 76% 0.00in /  0mm 0 W/m2
20:40 61.6 °F /  16.4 °C 54.6 °F /  12.6 °C 30.12in /  1019.9hPa Calm   3mph /  4.8km/h 78% 0.00in /  0mm 0 W/m2
20:50 61 °F /  16.1 °C 54.1 °F /  12.3 °C 30.12in /  1019.9hPa NW 1mph /  1.6km/h 2mph /  3.2km/h 78% 0.00in /  0mm 0 W/m2
21:00 60.8 °F /  16 °C 54.2 °F /  12.3 °C 30.12in /  1019.9hPa NW 1mph /  1.6km/h 2mph /  3.2km/h 79% 0.00in /  0mm 0 W/m2
21:10 60.8 °F /  16 °C 53.9 °F /  12.2 °C 30.12in /  1019.9hPa SSE 2mph /  3.2km/h 4mph /  6.4km/h 78% 0.00in /  0mm 0 W/m2
21:20 60.8 °F /  16 °C 53.9 °F /  12.2 °C 30.12in /  1019.9hPa Calm   2mph /  3.2km/h 78% 0.00in /  0mm 0 W/m2
21:30 60.4 °F /  15.8 °C 53.9 °F /  12.2 °C 30.12in /  1019.9hPa WNW 1mph /  1.6km/h 3mph /  4.8km/h 79% 0.00in /  0mm 0 W/m2
21:40 60.1 °F /  15.6 °C 53.9 °F /  12.2 °C 30.12in /  1019.9hPa North 1mph /  1.6km/h 5mph /  8km/h 80% 0.00in /  0mm 0 W/m2
21:50 59.7 °F /  15.4 °C 53.9 °F /  12.2 °C 30.12in /  1019.9hPa North 2mph /  3.2km/h 4mph /  6.4km/h 81% 0.00in /  0mm 0 W/m2
22:00 59.7 °F /  15.4 °C 53.9 °F /  12.2 °C 30.12in /  1019.9hPa SE 2mph /  3.2km/h 5mph /  8km/h 81% 0.00in /  0mm 0 W/m2
22:10 59.7 °F /  15.4 °C 53.9 °F /  12.2 °C 30.12in /  1019.9hPa SE 3mph /  4.8km/h 5mph /  8km/h 81% 0.00in /  0mm 0 W/m2
22:20 59.5 °F /  15.3 °C 53.7 °F /  12.1 °C 30.12in /  1019.9hPa ESE 3mph /  4.8km/h 7mph /  11.3km/h 81% 0.00in /  0mm 0 W/m2
22:30 59.7 °F /  15.4 °C 53.9 °F /  12.2 °C 30.12in /  1019.9hPa ESE 2mph /  3.2km/h 7mph /  11.3km/h 81% 0.00in /  0mm 0 W/m2
22:40 59.9 °F /  15.5 °C 53.7 °F /  12.1 °C 30.13in /  1020.2hPa ESE 1mph /  1.6km/h 5mph /  8km/h 80% 0.00in /  0mm 0 W/m2
22:50 59.9 °F /  15.5 °C 53.7 °F /  12.1 °C 30.13in /  1020.2hPa NNE 1mph /  1.6km/h 3mph /  4.8km/h 80% 0.00in /  0mm 0 W/m2
23:00 60 °F /  15.6 °C 53.9 °F /  12.2 °C 30.12in /  1019.9hPa ESE 5mph /  8km/h 7mph /  11.3km/h 80% 0.00in /  0mm 0 W/m2
23:10 59.9 °F /  15.5 °C 53.7 °F /  12.1 °C 30.13in /  1020.2hPa Calm   8mph /  12.9km/h 80% 0.00in /  0mm 0 W/m2
23:20 59.7 °F /  15.4 °C 53.5 °F /  11.9 °C 30.13in /  1020.2hPa East 3mph /  4.8km/h 6mph /  9.7km/h 80% 0.00in /  0mm 0 W/m2
23:30 59.7 °F /  15.4 °C 53.5 °F /  11.9 °C 30.13in /  1020.2hPa SSE 1mph /  1.6km/h 6mph /  9.7km/h 80% 0.00in /  0mm 0 W/m2
23:40 59.7 °F /  15.4 °C 53.5 °F /  11.9 °C 30.13in /  1020.2hPa SE 2mph /  3.2km/h 5mph /  8km/h 80% 0.00in /  0mm 0 W/m2
23:50 59.7 °F /  15.4 °C 53.5 °F /  11.9 °C 30.13in /  1020.2hPa East 1mph /  1.6km/h 5mph /  8km/h 80% 0.00in /  0mm 0 W/m2
Knjazevac, Serbia
Compliments of Weather Underground - 2 mb